x

Columbia River Bar - 20nm West Of Columbia River Mouth (46029) Wave Buoy

3:50 - Sun 26th Apr 2015 All times are PDT. -7 hours from GMT.

  • Sig Wave height 6.6ft
  • Swell Direction
  • Peak Period 7s
  • Average Period 5s
  • Wind
    25mph, 29mph gusts
  • Sea Temp 52°f
  • Luft Temp 51°f
  • Sea Pressure 1022.1mb
  • Columbia River Bar - 20nm West Of Columbia River Mouth
  • Columbia River Bar - 20nm West Of Columbia River Mouth

More Historic Weather Station data

Upgrade to MSW Pro to gain access to the past 30 days of data for over 8000 Wavebouys and Weather Stations around the globe.

Join Pro

Comparision Forecast

View Surf forecast
   
So 04/26 3:50 6.5ft 7s 5s 25 29 mph 1022.1mb 52f 51f
2:50 6ft 6s 5s 22 29 mph 1022.2mb 52f 50f
1:50 6ft 6s 5s 25 31 mph 1021.8mb 52f 51f
12:50 5ft 5s 5s 22 29 mph 1021.7mb 53f 51f
11:50 5ft 6s 5s 22 27 mph 1021.5mb 52f 50f
10:50 4.5ft 16s 5s 20 25 mph 1021.4mb 52f 50f
9:50 4.5ft 16s 5s 18 22 mph 1021.1mb 53f 50f
8:50 4.5ft 9s 6s 20 22 mph 1020.4mb 52f 50f
7:50 4ft 9s 6s 16 18 mph 1020.2mb 52f 51f
6:50 4.5ft 8s 6s 13 18 mph 1019.6mb 52f 51f
5:50 5ft 15s 6s 13 16 mph 1019.4mb 52f 51f
4:50 5ft 10s 7s 13 16 mph 1019mb 53f 51f
3:50 4.5ft 10s 7s 13 16 mph 1018.8mb 53f 51f
2:50 4.5ft 10s 7s 9 11 mph 1019.1mb 53f 52f
1:50 5ft 10s 7s 9
mph
1019.1mb 53f 51f
12:50 4.5ft 10s 8s 7
mph
1019.1mb 53f 51f
Sa 04/25 11:50 5ft 9s 8s 4 7 mph 1018.9mb 53f 51f
10:50 5ft 10s 8s 4 7 mph 1018.7mb 53f 51f
9:50 4.5ft 9s 8s 4 7 mph 1018.6mb 53f 51f
8:50 5ft 10s 8s 4 7 mph 1018.3mb 53f 51f
7:50 5.5ft 10s 8s 4 7 mph 1018mb 54f 52f
6:50 5ft 11s 7s 7 9 mph 1017.8mb 54f 52f
5:50 5.5ft 11s 7s 4 9 mph 1017.5mb 54f 52f
4:50 6ft 10s 7s 4 9 mph 1017.6mb 55f 52f
3:50 6.5ft 10s 7s 4 9 mph 1017.4mb 55f 51f
2:50 6.5ft 11s 7s 4 7 mph 1017.5mb 56f 51f
1:50 6.5ft 11s 7s 2
mph
1017.4mb 56f 51f
12:50 7ft 11s 8s 2 4 mph 1017.3mb 55f 51f
11:50 6.5ft 11s 7s 2
mph
1017.1mb 54f 51f
10:50 6.5ft 11s 8s 2 4 mph 1016.5mb 52f 50f
9:50 7ft 10s 8s 2
mph
1016.1mb 52f 49f
8:50 7ft 11s 8s 2 4 mph 1015.2mb 51f 49f
7:50 7ft 11s 8s 2 4 mph 1014.8mb 51f 50f
6:50 7ft 11s 8s 4
mph
1014.3mb 51f 49f
5:50 7.5ft 11s 8s 4 7 mph 1013.7mb 52f 49f
4:50 8.5ft 10s 8s 7 9 mph 1013.4mb 52f 49f
3:50 8.5ft 11s 8s 9 11 mph 1013.3mb 52f 49f
2:50 8.5ft 12s 8s 11 16 mph 1012.9mb 52f 49f
1:50 10ft 12s 8s 9 11 mph 1012.7mb 52f 50f
12:50 9ft 12s 8s 9 11 mph 1012.8mb 52f 50f
Fr 04/24 11:50 9ft 11s 8s 2 4 mph 1012.6mb 52f 49f
10:50 10ft 12s 8s 11 20 mph 1012.5mb 52f 50f
9:50 10ft 12s 8s 4 7 mph 1012.4mb 52f 50f
8:50 10ft 13s 8s 7 9 mph 1012mb 52f 50f
7:50 10ft 12s 8s 13 18 mph 1011.5mb 52f 50f
6:50 11ft 13s 8s 11 13 mph 1011.4mb 52f 51f
5:50 11ft 14s 8s 11 16 mph 1011.3mb 52f 52f
4:50 11ft 14s 9s 9 11 mph 1011.5mb 52f 50f
3:50 12.5ft 14s 9s 11 13 mph 1011.2mb 52f 51f
2:50 11ft 15s 9s 13 20 mph 1011.3mb 52f 50f
1:50 11ft 14s 8s 11 13 mph 1011.1mb 52f 51f
12:50 11ft 13s 9s 11 13 mph 1010.7mb 52f 50f
11:50 11ft 13s 9s 13 18 mph 1011mb 53f 51f
10:50 13ft 13s 9s 16 18 mph 1010.8mb 52f 51f
9:50 13ft 12s 9s 13 20 mph 1010.3mb 52f 50f
8:50 14ft 14s 9s 13 18 mph 1010mb 52f 51f
7:50 13ft 14s 9s 18 20 mph 1009.4mb 52f 51f
6:50 13ft 15s 9s 18 22 mph 1009mb 52f 51f
5:50 12ft 16s 8s 16 18 mph 1008.8mb 52f 50f
4:50 11.5ft 11s 7s 18 20 mph 1008.6mb 53f 50f
3:50 10ft 11s 7s 16 20 mph 1008.7mb 53f 50f
2:50 11ft 10s 7s 18 25 mph 1008.6mb 53f 50f
1:50 10ft 10s 7s 18 22 mph 1008.9mb 53f 50f
12:50 11ft 11s 7s 18 25 mph 1009.3mb 53f 48f
Do 04/23 11:50 10ft 11s 7s 22 27 mph 1009mb 53f 50f
10:50 9ft 11s 7s 22 27 mph 1009.4mb 53f 51f
9:50 8ft 10s 7s 16 20 mph 1009.8mb 53f 51f
8:50 8ft 10s 7s 18 20 mph 1009.8mb 53f 51f
7:50 7.5ft 10s 7s 16 20 mph 1010mb 53f 51f
6:50 7ft 10s 6s 18 22 mph 1010.1mb 53f 51f
5:50 7ft 8s 6s 16 18 mph 1010.5mb 53f 51f
4:50 8ft 7s 6s 16 18 mph 1010.4mb 53f 51f
3:50 8ft 7s 6s 20 25 mph 1010.5mb 53f 52f
2:50 8.5ft 7s 6s 18 22 mph 1010.5mb 53f 52f
1:50 9ft 7s 6s 13 20 mph 1010.9mb 53f 50f
12:50 9ft 7s 6s 13 16 mph 1010.8mb 53f 49f
11:50 9ft 6s 5s 29 38 mph 1010.7mb 53f 49f
10:50 7.5ft 5s 5s 31 38 mph 1010.8mb 53f 49f
9:50 6ft 5s 5s 29 36 mph 1011.4mb 53f 50f
8:50 6ft 11s 5s 27 31 mph 1012.3mb 53f 50f
7:50 5ft 11s 6s 22 29 mph 1013.2mb 53f 50f
6:50 5ft 11s 6s 20 25 mph 1013.9mb 53f 50f
5:50 6ft 11s 7s 16 20 mph 1014.6mb 53f 50f
4:50 6ft 11s 7s 13 18 mph 1015.4mb 53f 50f
3:50 6.5ft 10s 7s 11 13 mph 1016.1mb 53f 50f
2:50 6ft 11s 7s 9 13 mph 1016.9mb 53f 50f
1:50 7ft 12s 7s 9 11 mph 1017.7mb 53f 50f
12:50 7ft 11s 7s 7 9 mph 1018.5mb 53f 50f